sensor_id;sensor_type;location;lat;lon;timestamp;pressure;altitude;pressure_sealevel;temperature;humidity
61292;BME280;47165;42.664;23.368;2024-03-06T00:01:43;94775.28;;;10.36;56.16
61292;BME280;47165;42.664;23.368;2024-03-06T00:04:08;94770.25;;;10.33;56.36
61292;BME280;47165;42.664;23.368;2024-03-06T00:06:33;94777.06;;;10.36;56.35
61292;BME280;47165;42.664;23.368;2024-03-06T00:08:59;94772.97;;;10.46;56.07
61292;BME280;47165;42.664;23.368;2024-03-06T00:11:25;94774.63;;;10.47;55.80
61292;BME280;47165;42.664;23.368;2024-03-06T00:13:50;94774.34;;;10.37;56.11
61292;BME280;47165;42.664;23.368;2024-03-06T00:16:16;94767.75;;;10.32;56.17
61292;BME280;47165;42.664;23.368;2024-03-06T00:18:42;94770.00;;;10.38;55.88
61292;BME280;47165;42.664;23.368;2024-03-06T00:21:07;94775.38;;;10.35;56.24
61292;BME280;47165;42.664;23.368;2024-03-06T00:23:32;94771.00;;;10.35;56.28
61292;BME280;47165;42.664;23.368;2024-03-06T00:25:58;94774.53;;;10.34;56.02
61292;BME280;47165;42.664;23.368;2024-03-06T00:28:23;94775.28;;;10.36;55.95
61292;BME280;47165;42.664;23.368;2024-03-06T00:30:49;94774.09;;;10.12;56.70
61292;BME280;47165;42.664;23.368;2024-03-06T00:33:15;94777.75;;;10.09;57.09
61292;BME280;47165;42.664;23.368;2024-03-06T00:35:40;94777.00;;;10.07;56.95
61292;BME280;47165;42.664;23.368;2024-03-06T00:38:05;94769.06;;;10.08;56.73
61292;BME280;47165;42.664;23.368;2024-03-06T00:40:31;94776.63;;;10.13;56.70
61292;BME280;47165;42.664;23.368;2024-03-06T00:42:57;94778.94;;;10.03;56.77
61292;BME280;47165;42.664;23.368;2024-03-06T00:45:23;94777.16;;;10.04;56.83
61292;BME280;47165;42.664;23.368;2024-03-06T00:47:49;94778.75;;;10.06;56.84
61292;BME280;47165;42.664;23.368;2024-03-06T00:50:14;94761.50;;;10.04;56.74
61292;BME280;47165;42.664;23.368;2024-03-06T00:52:42;94774.19;;;10.10;56.66
61292;BME280;47165;42.664;23.368;2024-03-06T00:55:08;94767.47;;;10.06;56.75
61292;BME280;47165;42.664;23.368;2024-03-06T00:57:33;94779.69;;;10.05;56.68
61292;BME280;47165;42.664;23.368;2024-03-06T00:59:59;94775.50;;;10.03;56.80
61292;BME280;47165;42.664;23.368;2024-03-06T01:02:25;94775.38;;;10.04;56.45
61292;BME280;47165;42.664;23.368;2024-03-06T01:04:50;94780.59;;;10.04;56.65
61292;BME280;47165;42.664;23.368;2024-03-06T01:07:16;94780.94;;;9.98;56.95
61292;BME280;47165;42.664;23.368;2024-03-06T01:09:41;94781.06;;;9.97;56.82
61292;BME280;47165;42.664;23.368;2024-03-06T01:12:07;94789.13;;;9.92;57.04
61292;BME280;47165;42.664;23.368;2024-03-06T01:14:33;94793.72;;;9.89;57.47
61292;BME280;47165;42.664;23.368;2024-03-06T01:16:59;94788.09;;;9.80;57.84
61292;BME280;47165;42.664;23.368;2024-03-06T01:19:24;94801.28;;;9.77;57.81
61292;BME280;47165;42.664;23.368;2024-03-06T01:21:49;94786.59;;;9.76;57.96
61292;BME280;47165;42.664;23.368;2024-03-06T01:24:15;94783.97;;;9.76;57.74
61292;BME280;47165;42.664;23.368;2024-03-06T01:26:40;94788.44;;;9.74;57.70
61292;BME280;47165;42.664;23.368;2024-03-06T01:29:06;94789.34;;;9.73;57.95
61292;BME280;47165;42.664;23.368;2024-03-06T01:31:31;94791.56;;;9.65;58.15
61292;BME280;47165;42.664;23.368;2024-03-06T01:33:57;94783.06;;;9.61;57.98
61292;BME280;47165;42.664;23.368;2024-03-06T01:36:22;94789.03;;;9.63;58.16
61292;BME280;47165;42.664;23.368;2024-03-06T01:38:48;94783.75;;;9.65;57.83
61292;BME280;47165;42.664;23.368;2024-03-06T01:41:14;94793.25;;;9.66;57.85
61292;BME280;47165;42.664;23.368;2024-03-06T01:43:40;94785.78;;;9.60;57.95
61292;BME280;47165;42.664;23.368;2024-03-06T01:46:06;94787.44;;;9.61;58.13
61292;BME280;47165;42.664;23.368;2024-03-06T01:48:32;94780.31;;;9.64;57.88
61292;BME280;47165;42.664;23.368;2024-03-06T01:50:59;94783.00;;;9.63;58.02
61292;BME280;47165;42.664;23.368;2024-03-06T01:53:29;94791.75;;;9.62;57.69
61292;BME280;47165;42.664;23.368;2024-03-06T01:55:56;94783.25;;;9.58;57.56
61292;BME280;47165;42.664;23.368;2024-03-06T01:58:23;94782.44;;;9.58;57.65
61292;BME280;47165;42.664;23.368;2024-03-06T02:00:50;94784.16;;;9.57;57.24
61292;BME280;47165;42.664;23.368;2024-03-06T02:03:16;94779.16;;;9.54;57.09
61292;BME280;47165;42.664;23.368;2024-03-06T02:05:42;94785.53;;;9.49;57.05
61292;BME280;47165;42.664;23.368;2024-03-06T02:08:08;94785.88;;;9.42;57.27
61292;BME280;47165;42.664;23.368;2024-03-06T02:10:34;94789.59;;;9.38;57.25
61292;BME280;47165;42.664;23.368;2024-03-06T02:13:00;94793.13;;;9.37;57.17
61292;BME280;47165;42.664;23.368;2024-03-06T02:15:25;94793.63;;;9.28;57.03
61292;BME280;47165;42.664;23.368;2024-03-06T02:17:51;94795.66;;;9.23;57.17
61292;BME280;47165;42.664;23.368;2024-03-06T02:20:25;94800.19;;;9.19;57.17
61292;BME280;47165;42.664;23.368;2024-03-06T02:22:51;94801.34;;;9.14;57.17
61292;BME280;47165;42.664;23.368;2024-03-06T02:25:17;94799.84;;;9.10;56.93
61292;BME280;47165;42.664;23.368;2024-03-06T02:27:44;94806.31;;;9.02;57.08
61292;BME280;47165;42.664;23.368;2024-03-06T02:30:10;94797.81;;;8.99;56.82
61292;BME280;47165;42.664;23.368;2024-03-06T02:32:36;94810.84;;;8.99;56.73
61292;BME280;47165;42.664;23.368;2024-03-06T02:35:02;94810.41;;;8.91;56.57
61292;BME280;47165;42.664;23.368;2024-03-06T02:37:34;94807.38;;;8.82;57.09
61292;BME280;47165;42.664;23.368;2024-03-06T02:39:59;94816.44;;;8.75;57.22
61292;BME280;47165;42.664;23.368;2024-03-06T02:42:25;94819.19;;;8.72;57.49
61292;BME280;47165;42.664;23.368;2024-03-06T02:44:51;94816.69;;;8.71;57.38
61292;BME280;47165;42.664;23.368;2024-03-06T02:47:16;94811.03;;;8.62;57.90
61292;BME280;47165;42.664;23.368;2024-03-06T02:49:42;94820.69;;;8.60;58.11
61292;BME280;47165;42.664;23.368;2024-03-06T02:52:07;94813.69;;;8.61;57.75
61292;BME280;47165;42.664;23.368;2024-03-06T02:54:32;94810.34;;;8.59;57.88
61292;BME280;47165;42.664;23.368;2024-03-06T02:56:58;94808.22;;;8.50;58.45
61292;BME280;47165;42.664;23.368;2024-03-06T02:59:23;94813.22;;;8.37;58.41
61292;BME280;47165;42.664;23.368;2024-03-06T03:01:50;94813.00;;;8.41;58.26
61292;BME280;47165;42.664;23.368;2024-03-06T03:04:16;94816.28;;;8.45;58.15
61292;BME280;47165;42.664;23.368;2024-03-06T03:06:41;94826.22;;;8.37;58.21
61292;BME280;47165;42.664;23.368;2024-03-06T03:09:07;94821.09;;;8.35;58.52
61292;BME280;47165;42.664;23.368;2024-03-06T03:11:33;94821.22;;;8.32;58.43
61292;BME280;47165;42.664;23.368;2024-03-06T03:14:01;94824.91;;;8.28;58.52
61292;BME280;47165;42.664;23.368;2024-03-06T03:16:26;94830.19;;;8.26;58.59
61292;BME280;47165;42.664;23.368;2024-03-06T03:18:52;94828.56;;;8.24;58.86
61292;BME280;47165;42.664;23.368;2024-03-06T03:21:19;94827.66;;;8.25;58.66
61292;BME280;47165;42.664;23.368;2024-03-06T03:23:45;94832.50;;;8.15;58.81
61292;BME280;47165;42.664;23.368;2024-03-06T03:26:10;94825.00;;;8.09;59.20
61292;BME280;47165;42.664;23.368;2024-03-06T03:28:39;94829.44;;;8.07;59.20
61292;BME280;47165;42.664;23.368;2024-03-06T03:31:09;94824.53;;;8.01;59.24
61292;BME280;47165;42.664;23.368;2024-03-06T03:33:44;94836.69;;;8.00;59.33
61292;BME280;47165;42.664;23.368;2024-03-06T03:36:09;94832.63;;;7.95;59.23
61292;BME280;47165;42.664;23.368;2024-03-06T03:38:36;94846.72;;;7.91;59.38
61292;BME280;47165;42.664;23.368;2024-03-06T03:41:07;94838.78;;;7.94;59.25
61292;BME280;47165;42.664;23.368;2024-03-06T03:43:33;94842.56;;;7.86;59.42
61292;BME280;47165;42.664;23.368;2024-03-06T03:45:58;94837.25;;;7.90;59.29
61292;BME280;47165;42.664;23.368;2024-03-06T03:48:25;94845.16;;;7.86;59.12
61292;BME280;47165;42.664;23.368;2024-03-06T03:50:50;94840.91;;;7.85;59.41
61292;BME280;47165;42.664;23.368;2024-03-06T03:53:16;94841.75;;;7.86;59.23
61292;BME280;47165;42.664;23.368;2024-03-06T03:55:41;94845.47;;;7.80;59.20
61292;BME280;47165;42.664;23.368;2024-03-06T03:58:07;94842.94;;;7.79;59.32
61292;BME280;47165;42.664;23.368;2024-03-06T04:00:33;94847.16;;;7.81;59.22
61292;BME280;47165;42.664;23.368;2024-03-06T04:02:58;94849.19;;;7.75;59.42
61292;BME280;47165;42.664;23.368;2024-03-06T04:05:25;94849.13;;;7.76;59.36
61292;BME280;47165;42.664;23.368;2024-03-06T04:07:51;94854.56;;;7.72;59.42
61292;BME280;47165;42.664;23.368;2024-03-06T04:10:16;94853.72;;;7.71;59.43
61292;BME280;47165;42.664;23.368;2024-03-06T04:12:42;94850.19;;;7.72;59.70
61292;BME280;47165;42.664;23.368;2024-03-06T04:15:07;94863.97;;;7.74;59.78
61292;BME280;47165;42.664;23.368;2024-03-06T04:17:34;94864.41;;;7.65;60.13
61292;BME280;47165;42.664;23.368;2024-03-06T04:20:00;94871.28;;;7.66;60.20
61292;BME280;47165;42.664;23.368;2024-03-06T04:22:26;94864.41;;;7.65;60.41
61292;BME280;47165;42.664;23.368;2024-03-06T04:24:51;94873.81;;;7.68;60.15
61292;BME280;47165;42.664;23.368;2024-03-06T04:27:16;94871.22;;;7.68;60.20
61292;BME280;47165;42.664;23.368;2024-03-06T04:29:43;94872.97;;;7.67;59.55
61292;BME280;47165;42.664;23.368;2024-03-06T04:32:09;94871.75;;;7.74;59.40
61292;BME280;47165;42.664;23.368;2024-03-06T04:34:34;94874.81;;;7.65;60.31
61292;BME280;47165;42.664;23.368;2024-03-06T04:37:00;94871.56;;;7.60;60.22
61292;BME280;47165;42.664;23.368;2024-03-06T04:39:26;94877.00;;;7.55;60.45
61292;BME280;47165;42.664;23.368;2024-03-06T04:41:52;94874.34;;;7.57;59.83
61292;BME280;47165;42.664;23.368;2024-03-06T04:44:17;94866.19;;;7.45;59.05
61292;BME280;47165;42.664;23.368;2024-03-06T04:46:42;94885.00;;;7.51;58.95
61292;BME280;47165;42.664;23.368;2024-03-06T04:49:08;94890.22;;;7.51;58.91
61292;BME280;47165;42.664;23.368;2024-03-06T04:51:33;94883.19;;;7.53;58.92
61292;BME280;47165;42.664;23.368;2024-03-06T04:53:59;94886.97;;;7.45;59.25
61292;BME280;47165;42.664;23.368;2024-03-06T04:56:24;94887.19;;;7.41;59.66
61292;BME280;47165;42.664;23.368;2024-03-06T04:58:50;94887.25;;;7.39;59.58
61292;BME280;47165;42.664;23.368;2024-03-06T05:01:17;94891.41;;;7.43;60.09
61292;BME280;47165;42.664;23.368;2024-03-06T05:03:43;94891.94;;;7.50;60.11
61292;BME280;47165;42.664;23.368;2024-03-06T05:06:08;94891.16;;;7.48;60.46
61292;BME280;47165;42.664;23.368;2024-03-06T05:08:34;94899.81;;;7.49;60.26
61292;BME280;47165;42.664;23.368;2024-03-06T05:11:00;94892.81;;;7.51;59.87
61292;BME280;47165;42.664;23.368;2024-03-06T05:13:27;94899.66;;;7.52;59.55
61292;BME280;47165;42.664;23.368;2024-03-06T05:15:52;94901.50;;;7.50;59.13
61292;BME280;47165;42.664;23.368;2024-03-06T05:18:19;94899.81;;;7.49;59.21
61292;BME280;47165;42.664;23.368;2024-03-06T05:20:46;94899.06;;;7.47;59.64
61292;BME280;47165;42.664;23.368;2024-03-06T05:23:11;94901.38;;;7.53;59.75
61292;BME280;47165;42.664;23.368;2024-03-06T05:25:38;94900.66;;;7.49;60.43
61292;BME280;47165;42.664;23.368;2024-03-06T05:28:04;94899.97;;;7.45;60.60
61292;BME280;47165;42.664;23.368;2024-03-06T05:30:29;94904.09;;;7.50;60.32
61292;BME280;47165;42.664;23.368;2024-03-06T05:32:55;94909.28;;;7.50;60.05
61292;BME280;47165;42.664;23.368;2024-03-06T05:35:21;94911.88;;;7.50;60.22
61292;BME280;47165;42.664;23.368;2024-03-06T05:37:46;94908.22;;;7.54;60.40
61292;BME280;47165;42.664;23.368;2024-03-06T05:40:12;94911.59;;;7.56;60.08
61292;BME280;47165;42.664;23.368;2024-03-06T05:42:38;94924.59;;;7.56;59.90
61292;BME280;47165;42.664;23.368;2024-03-06T05:45:04;94920.03;;;7.61;59.42
61292;BME280;47165;42.664;23.368;2024-03-06T05:47:36;94920.09;;;7.59;59.97
61292;BME280;47165;42.664;23.368;2024-03-06T05:50:02;94921.88;;;7.59;60.48
61292;BME280;47165;42.664;23.368;2024-03-06T05:52:30;94916.66;;;7.59;60.85
61292;BME280;47165;42.664;23.368;2024-03-06T05:54:56;94929.44;;;7.63;61.03
61292;BME280;47165;42.664;23.368;2024-03-06T05:57:22;94930.06;;;7.69;60.88
61292;BME280;47165;42.664;23.368;2024-03-06T05:59:47;94931.59;;;7.73;61.30
61292;BME280;47165;42.664;23.368;2024-03-06T06:02:13;94932.25;;;7.78;61.44
61292;BME280;47165;42.664;23.368;2024-03-06T06:04:38;94926.88;;;7.81;61.25
61292;BME280;47165;42.664;23.368;2024-03-06T06:07:04;94939.69;;;7.85;61.22
61292;BME280;47165;42.664;23.368;2024-03-06T06:09:29;94934.31;;;7.89;61.39
61292;BME280;47165;42.664;23.368;2024-03-06T06:11:55;94933.25;;;7.93;61.35
61292;BME280;47165;42.664;23.368;2024-03-06T06:14:20;94937.34;;;7.98;61.42
61292;BME280;47165;42.664;23.368;2024-03-06T06:16:47;94944.84;;;8.04;61.83
61292;BME280;47165;42.664;23.368;2024-03-06T06:19:12;94930.53;;;8.13;61.97
61292;BME280;47165;42.664;23.368;2024-03-06T06:21:38;94937.91;;;8.22;62.03
61292;BME280;47165;42.664;23.368;2024-03-06T06:24:04;94941.94;;;8.28;62.19
61292;BME280;47165;42.664;23.368;2024-03-06T06:26:30;94938.97;;;8.36;61.88
61292;BME280;47165;42.664;23.368;2024-03-06T06:28:56;94937.91;;;8.40;61.63
61292;BME280;47165;42.664;23.368;2024-03-06T06:31:22;94940.41;;;8.43;61.54
61292;BME280;47165;42.664;23.368;2024-03-06T06:33:50;94934.19;;;8.45;61.53
61292;BME280;47165;42.664;23.368;2024-03-06T06:36:17;94939.88;;;8.54;61.12
61292;BME280;47165;42.664;23.368;2024-03-06T06:38:43;94937.97;;;8.57;61.07
61292;BME280;47165;42.664;23.368;2024-03-06T06:41:09;94924.50;;;8.49;60.81
61292;BME280;47165;42.664;23.368;2024-03-06T06:43:35;94936.25;;;8.56;60.77
61292;BME280;47165;42.664;23.368;2024-03-06T06:46:01;94925.53;;;8.62;60.87
61292;BME280;47165;42.664;23.368;2024-03-06T06:48:26;94930.38;;;8.70;60.42
61292;BME280;47165;42.664;23.368;2024-03-06T06:50:52;94931.97;;;8.73;60.80
61292;BME280;47165;42.664;23.368;2024-03-06T06:53:17;94940.53;;;8.75;60.46
61292;BME280;47165;42.664;23.368;2024-03-06T06:55:43;94946.38;;;8.80;60.73
61292;BME280;47165;42.664;23.368;2024-03-06T06:58:08;94944.34;;;8.85;60.79
61292;BME280;47165;42.664;23.368;2024-03-06T07:00:34;94941.69;;;8.86;60.53
61292;BME280;47165;42.664;23.368;2024-03-06T07:02:59;94942.28;;;8.92;60.40
61292;BME280;47165;42.664;23.368;2024-03-06T07:05:25;94944.81;;;8.93;60.30
61292;BME280;47165;42.664;23.368;2024-03-06T07:07:51;94951.72;;;8.94;60.07
61292;BME280;47165;42.664;23.368;2024-03-06T07:10:17;94948.69;;;9.02;59.95
61292;BME280;47165;42.664;23.368;2024-03-06T07:12:42;94942.50;;;9.04;60.04
61292;BME280;47165;42.664;23.368;2024-03-06T07:15:08;94940.41;;;9.11;59.93
61292;BME280;47165;42.664;23.368;2024-03-06T07:17:33;94941.00;;;9.16;59.57
61292;BME280;47165;42.664;23.368;2024-03-06T07:19:59;94937.16;;;9.23;59.67
61292;BME280;47165;42.664;23.368;2024-03-06T07:22:24;94938.31;;;9.18;59.43
61292;BME280;47165;42.664;23.368;2024-03-06T07:24:50;94932.09;;;9.20;59.44
61292;BME280;47165;42.664;23.368;2024-03-06T07:27:15;94935.81;;;9.32;59.10
61292;BME280;47165;42.664;23.368;2024-03-06T07:29:41;94935.56;;;9.37;58.72
61292;BME280;47165;42.664;23.368;2024-03-06T07:32:06;94941.56;;;9.39;58.78
61292;BME280;47165;42.664;23.368;2024-03-06T07:34:32;94939.47;;;9.45;58.88
61292;BME280;47165;42.664;23.368;2024-03-06T07:36:58;94944.50;;;9.49;58.84
61292;BME280;47165;42.664;23.368;2024-03-06T07:39:24;94940.81;;;9.53;58.58
61292;BME280;47165;42.664;23.368;2024-03-06T07:41:51;94941.44;;;9.58;58.45
61292;BME280;47165;42.664;23.368;2024-03-06T07:44:17;94936.78;;;9.63;58.38
61292;BME280;47165;42.664;23.368;2024-03-06T07:46:42;94937.22;;;9.71;58.08
61292;BME280;47165;42.664;23.368;2024-03-06T07:49:08;94931.91;;;9.73;58.42
61292;BME280;47165;42.664;23.368;2024-03-06T07:51:34;94943.53;;;9.83;58.07
61292;BME280;47165;42.664;23.368;2024-03-06T07:54:00;94942.50;;;9.85;58.02
61292;BME280;47165;42.664;23.368;2024-03-06T07:56:27;94939.56;;;9.92;58.01
61292;BME280;47165;42.664;23.368;2024-03-06T07:58:53;94932.41;;;9.95;58.10
61292;BME280;47165;42.664;23.368;2024-03-06T08:01:19;94932.16;;;10.00;58.03
61292;BME280;47165;42.664;23.368;2024-03-06T08:03:46;94938.53;;;10.10;57.73
61292;BME280;47165;42.664;23.368;2024-03-06T08:06:12;94936.59;;;10.14;57.59
61292;BME280;47165;42.664;23.368;2024-03-06T08:08:41;94943.34;;;10.18;57.61
61292;BME280;47165;42.664;23.368;2024-03-06T08:11:06;94941.06;;;10.27;57.49
61292;BME280;47165;42.664;23.368;2024-03-06T08:13:31;94950.22;;;10.35;57.26
61292;BME280;47165;42.664;23.368;2024-03-06T08:15:57;94945.09;;;10.33;56.86
61292;BME280;47165;42.664;23.368;2024-03-06T08:18:22;94945.69;;;10.38;56.95
61292;BME280;47165;42.664;23.368;2024-03-06T08:20:48;94949.53;;;10.47;56.77
61292;BME280;47165;42.664;23.368;2024-03-06T08:23:13;94948.34;;;10.53;56.44
61292;BME280;47165;42.664;23.368;2024-03-06T08:25:39;94944.53;;;10.58;56.35
61292;BME280;47165;42.664;23.368;2024-03-06T08:28:05;94944.19;;;10.64;56.28
61292;BME280;47165;42.664;23.368;2024-03-06T08:30:31;94940.47;;;10.69;55.98
61292;BME280;47165;42.664;23.368;2024-03-06T08:32:56;94931.59;;;10.71;55.68
61292;BME280;47165;42.664;23.368;2024-03-06T08:35:22;94931.53;;;10.73;55.63
61292;BME280;47165;42.664;23.368;2024-03-06T08:37:49;94931.91;;;10.81;55.66
61292;BME280;47165;42.664;23.368;2024-03-06T08:40:16;94933.50;;;10.83;55.65
61292;BME280;47165;42.664;23.368;2024-03-06T08:42:52;94933.88;;;10.92;55.63
61292;BME280;47165;42.664;23.368;2024-03-06T08:45:17;94936.22;;;10.96;55.32
61292;BME280;47165;42.664;23.368;2024-03-06T08:47:44;94941.00;;;11.04;54.96
61292;BME280;47165;42.664;23.368;2024-03-06T08:50:11;94944.16;;;11.09;54.67
61292;BME280;47165;42.664;23.368;2024-03-06T08:52:37;94940.44;;;11.13;54.90
61292;BME280;47165;42.664;23.368;2024-03-06T08:55:03;94934.94;;;11.18;55.03
61292;BME280;47165;42.664;23.368;2024-03-06T08:57:32;94942.41;;;11.24;54.86
61292;BME280;47165;42.664;23.368;2024-03-06T08:59:58;94928.69;;;11.35;54.83
61292;BME280;47165;42.664;23.368;2024-03-06T09:02:24;94926.53;;;11.41;54.69
61292;BME280;47165;42.664;23.368;2024-03-06T09:04:49;94930.47;;;11.48;54.08
61292;BME280;47165;42.664;23.368;2024-03-06T09:07:17;94932.56;;;11.56;54.37
61292;BME280;47165;42.664;23.368;2024-03-06T09:09:43;94934.56;;;11.67;54.12
61292;BME280;47165;42.664;23.368;2024-03-06T09:12:09;94935.66;;;11.77;54.11
61292;BME280;47165;42.664;23.368;2024-03-06T09:14:39;94933.13;;;11.90;52.31
61292;BME280;47165;42.664;23.368;2024-03-06T09:17:06;94936.56;;;11.91;52.03
61292;BME280;47165;42.664;23.368;2024-03-06T09:19:35;94936.56;;;11.91;52.08
61292;BME280;47165;42.664;23.368;2024-03-06T09:22:00;94929.47;;;11.93;51.43
61292;BME280;47165;42.664;23.368;2024-03-06T09:24:26;94923.66;;;12.02;51.85
61292;BME280;47165;42.664;23.368;2024-03-06T09:26:52;94930.00;;;12.12;51.81
61292;BME280;47165;42.664;23.368;2024-03-06T09:29:18;94925.94;;;12.21;51.67
61292;BME280;47165;42.664;23.368;2024-03-06T09:31:44;94916.72;;;12.28;52.05
61292;BME280;47165;42.664;23.368;2024-03-06T09:34:11;94922.94;;;12.40;51.61
61292;BME280;47165;42.664;23.368;2024-03-06T09:36:38;94923.03;;;12.38;50.12
61292;BME280;47165;42.664;23.368;2024-03-06T09:39:03;94919.53;;;12.52;50.24
61292;BME280;47165;42.664;23.368;2024-03-06T09:41:30;94916.31;;;12.61;50.01
61292;BME280;47165;42.664;23.368;2024-03-06T09:43:55;94915.34;;;12.62;50.47
61292;BME280;47165;42.664;23.368;2024-03-06T09:46:21;94908.38;;;12.76;49.83
61292;BME280;47165;42.664;23.368;2024-03-06T09:48:49;94911.31;;;12.84;49.72
61292;BME280;47165;42.664;23.368;2024-03-06T09:51:17;94900.84;;;12.84;48.25
61292;BME280;47165;42.664;23.368;2024-03-06T09:53:42;94907.31;;;12.91;47.76
61292;BME280;47165;42.664;23.368;2024-03-06T09:56:10;94895.19;;;12.90;47.91
61292;BME280;47165;42.664;23.368;2024-03-06T09:58:36;94902.94;;;13.04;47.96
61292;BME280;47165;42.664;23.368;2024-03-06T10:01:02;94893.69;;;13.12;48.21
61292;BME280;47165;42.664;23.368;2024-03-06T10:03:29;94894.53;;;13.25;48.68
61292;BME280;47165;42.664;23.368;2024-03-06T10:05:55;94893.59;;;13.39;48.06
61292;BME280;47165;42.664;23.368;2024-03-06T10:08:22;94890.97;;;13.52;47.45
61292;BME280;47165;42.664;23.368;2024-03-06T10:10:49;94884.97;;;13.62;46.86
61292;BME280;47165;42.664;23.368;2024-03-06T10:13:18;94880.84;;;13.71;46.54
61292;BME280;47165;42.664;23.368;2024-03-06T10:15:58;94883.94;;;13.89;46.49
61292;BME280;47165;42.664;23.368;2024-03-06T10:18:26;94886.50;;;14.02;45.83
61292;BME280;47165;42.664;23.368;2024-03-06T10:20:52;94881.25;;;14.02;43.42
61292;BME280;47165;42.664;23.368;2024-03-06T10:23:18;94877.75;;;14.14;43.69
61292;BME280;47165;42.664;23.368;2024-03-06T10:25:44;94874.91;;;14.17;43.90
61292;BME280;47165;42.664;23.368;2024-03-06T10:28:16;94874.72;;;14.32;44.40
61292;BME280;47165;42.664;23.368;2024-03-06T10:30:42;94870.22;;;14.45;44.47
61292;BME280;47165;42.664;23.368;2024-03-06T10:33:08;94866.59;;;14.59;43.21
61292;BME280;47165;42.664;23.368;2024-03-06T10:35:35;94862.50;;;14.79;43.27
61292;BME280;47165;42.664;23.368;2024-03-06T10:38:05;94854.38;;;14.93;42.53
61292;BME280;47165;42.664;23.368;2024-03-06T10:40:32;94855.59;;;15.12;41.88
61292;BME280;47165;42.664;23.368;2024-03-06T10:43:02;94846.63;;;15.37;41.47
61292;BME280;47165;42.664;23.368;2024-03-06T10:45:49;94849.13;;;15.61;40.95
61292;BME280;47165;42.664;23.368;2024-03-06T10:48:16;94841.34;;;15.82;41.08
61292;BME280;47165;42.664;23.368;2024-03-06T10:50:43;94831.56;;;16.05;40.36
61292;BME280;47165;42.664;23.368;2024-03-06T10:53:18;94837.94;;;16.35;39.26
61292;BME280;47165;42.664;23.368;2024-03-06T10:55:44;94827.00;;;16.60;37.86
61292;BME280;47165;42.664;23.368;2024-03-06T10:58:11;94818.78;;;16.75;37.54
61292;BME280;47165;42.664;23.368;2024-03-06T11:00:41;94814.31;;;16.86;36.44
61292;BME280;47165;42.664;23.368;2024-03-06T11:03:09;94816.84;;;17.19;36.10
61292;BME280;47165;42.664;23.368;2024-03-06T11:05:41;94800.69;;;17.53;36.23
61292;BME280;47165;42.664;23.368;2024-03-06T11:08:10;94799.81;;;17.83;35.67
61292;BME280;47165;42.664;23.368;2024-03-06T11:10:38;94799.44;;;18.17;35.64
61292;BME280;47165;42.664;23.368;2024-03-06T11:15:45;94791.31;;;18.86;33.41
61292;BME280;47165;42.664;23.368;2024-03-06T11:23:27;94777.69;;;20.02;31.27
61292;BME280;47165;42.664;23.368;2024-03-06T11:30:57;94768.25;;;21.05;29.59
61292;BME280;47165;42.664;23.368;2024-03-06T11:36:24;94755.94;;;21.73;29.43
61292;BME280;47165;42.664;23.368;2024-03-06T11:39:01;94754.38;;;22.05;28.54
61292;BME280;47165;42.664;23.368;2024-03-06T11:41:28;94755.25;;;22.30;28.98
61292;BME280;47165;42.664;23.368;2024-03-06T11:43:55;94751.25;;;22.59;28.59
61292;BME280;47165;42.664;23.368;2024-03-06T11:46:22;94750.41;;;22.75;26.82
61292;BME280;47165;42.664;23.368;2024-03-06T11:48:52;94749.41;;;22.84;27.01
61292;BME280;47165;42.664;23.368;2024-03-06T11:51:18;94736.75;;;22.86;27.95
61292;BME280;47165;42.664;23.368;2024-03-06T11:53:43;94741.56;;;22.82;28.08
61292;BME280;47165;42.664;23.368;2024-03-06T11:56:10;94743.06;;;22.93;27.04
61292;BME280;47165;42.664;23.368;2024-03-06T11:58:35;94738.56;;;23.02;27.81
61292;BME280;47165;42.664;23.368;2024-03-06T12:01:01;94736.69;;;23.19;27.37
61292;BME280;47165;42.664;23.368;2024-03-06T12:03:27;94734.78;;;23.36;26.11
61292;BME280;47165;42.664;23.368;2024-03-06T12:05:52;94736.13;;;23.32;25.88
61292;BME280;47165;42.664;23.368;2024-03-06T12:08:18;94735.03;;;23.18;27.41
61292;BME280;47165;42.664;23.368;2024-03-06T12:10:45;94733.72;;;23.14;25.53
61292;BME280;47165;42.664;23.368;2024-03-06T12:13:11;94727.75;;;23.03;26.92
61292;BME280;47165;42.664;23.368;2024-03-06T12:15:37;94728.75;;;23.02;27.32
61292;BME280;47165;42.664;23.368;2024-03-06T12:18:02;94730.06;;;22.98;27.00
61292;BME280;47165;42.664;23.368;2024-03-06T12:20:28;94719.94;;;22.85;26.34
61292;BME280;47165;42.664;23.368;2024-03-06T12:22:54;94717.13;;;22.79;26.41
61292;BME280;47165;42.664;23.368;2024-03-06T12:25:25;94716.63;;;22.83;26.66
61292;BME280;47165;42.664;23.368;2024-03-06T12:27:53;94719.44;;;22.90;26.44
61292;BME280;47165;42.664;23.368;2024-03-06T12:30:20;94707.41;;;23.10;25.44
61292;BME280;47165;42.664;23.368;2024-03-06T12:32:57;94716.38;;;23.26;25.89
61292;BME280;47165;42.664;23.368;2024-03-06T12:35:26;94701.69;;;23.30;25.16
61292;BME280;47165;42.664;23.368;2024-03-06T12:37:52;94707.19;;;23.28;25.41
61292;BME280;47165;42.664;23.368;2024-03-06T12:40:19;94709.28;;;23.41;25.57
61292;BME280;47165;42.664;23.368;2024-03-06T12:42:44;94708.88;;;23.61;26.27
61292;BME280;47165;42.664;23.368;2024-03-06T12:45:12;94710.13;;;23.81;25.31
61292;BME280;47165;42.664;23.368;2024-03-06T12:47:42;94716.28;;;23.82;25.49
61292;BME280;47165;42.664;23.368;2024-03-06T12:50:08;94717.78;;;23.76;26.41
61292;BME280;47165;42.664;23.368;2024-03-06T12:52:34;94717.78;;;23.76;27.12
61292;BME280;47165;42.664;23.368;2024-03-06T12:55:01;94719.19;;;23.64;27.07
61292;BME280;47165;42.664;23.368;2024-03-06T12:57:26;94714.63;;;23.41;27.31
61292;BME280;47165;42.664;23.368;2024-03-06T12:59:53;94712.75;;;23.10;27.33
61292;BME280;47165;42.664;23.368;2024-03-06T13:02:18;94709.28;;;22.85;27.60
61292;BME280;47165;42.664;23.368;2024-03-06T13:04:44;94719.16;;;22.60;28.27
61292;BME280;47165;42.664;23.368;2024-03-06T13:07:10;94721.47;;;22.47;28.51